sensor_id;sensor_type;location;lat;lon;timestamp;pressure;altitude;pressure_sealevel;temperature;humidity
74163;BME280;62515;52.758;5.076;2022-10-30T00:01:17;101711.28;;;14.12;100.00
74163;BME280;62515;52.758;5.076;2022-10-30T00:03:45;101691.00;;;13.97;100.00
74163;BME280;62515;52.758;5.076;2022-10-30T00:06:12;101706.84;;;14.00;100.00
74163;BME280;62515;52.758;5.076;2022-10-30T00:08:39;101702.97;;;13.92;100.00
74163;BME280;62515;52.758;5.076;2022-10-30T00:11:07;101708.13;;;13.82;100.00
74163;BME280;62515;52.758;5.076;2022-10-30T00:13:34;101695.97;;;13.78;100.00
74163;BME280;62515;52.758;5.076;2022-10-30T00:16:03;101707.41;;;13.80;100.00
74163;BME280;62515;52.758;5.076;2022-10-30T00:18:33;101705.81;;;13.78;100.00
74163;BME280;62515;52.758;5.076;2022-10-30T00:21:05;101676.28;;;13.54;100.00
74163;BME280;62515;52.758;5.076;2022-10-30T00:23:32;101708.78;;;13.73;100.00
74163;BME280;62515;52.758;5.076;2022-10-30T00:26:02;101713.50;;;13.70;100.00
74163;BME280;62515;52.758;5.076;2022-10-30T00:28:29;101712.88;;;13.66;100.00
74163;BME280;62515;52.758;5.076;2022-10-30T00:30:58;101700.91;;;13.59;100.00
74163;BME280;62515;52.758;5.076;2022-10-30T00:33:24;101709.13;;;13.69;100.00
74163;BME280;62515;52.758;5.076;2022-10-30T00:35:52;101698.63;;;13.66;100.00
74163;BME280;62515;52.758;5.076;2022-10-30T00:38:20;101710.50;;;13.74;100.00
74163;BME280;62515;52.758;5.076;2022-10-30T00:40:48;101711.88;;;13.80;100.00
74163;BME280;62515;52.758;5.076;2022-10-30T00:43:28;101708.34;;;13.79;100.00
74163;BME280;62515;52.758;5.076;2022-10-30T00:45:57;101700.44;;;13.78;100.00
74163;BME280;62515;52.758;5.076;2022-10-30T00:48:25;101689.13;;;13.74;100.00
74163;BME280;62515;52.758;5.076;2022-10-30T00:50:54;101713.25;;;13.85;100.00
74163;BME280;62515;52.758;5.076;2022-10-30T00:53:25;101720.13;;;13.89;100.00
74163;BME280;62515;52.758;5.076;2022-10-30T00:55:56;101706.00;;;13.87;100.00
74163;BME280;62515;52.758;5.076;2022-10-30T00:58:26;101718.19;;;13.91;100.00
74163;BME280;62515;52.758;5.076;2022-10-30T01:00:56;101716.03;;;13.96;100.00
74163;BME280;62515;52.758;5.076;2022-10-30T01:03:24;101717.53;;;14.00;100.00
74163;BME280;62515;52.758;5.076;2022-10-30T01:05:55;101708.34;;;14.04;100.00
74163;BME280;62515;52.758;5.076;2022-10-30T01:08:22;101710.78;;;14.07;100.00
74163;BME280;62515;52.758;5.076;2022-10-30T01:10:52;101708.84;;;14.09;100.00
74163;BME280;62515;52.758;5.076;2022-10-30T01:13:21;101714.91;;;14.11;100.00
74163;BME280;62515;52.758;5.076;2022-10-30T01:16:01;101713.88;;;14.14;100.00
74163;BME280;62515;52.758;5.076;2022-10-30T01:18:39;101715.78;;;14.12;100.00
74163;BME280;62515;52.758;5.076;2022-10-30T01:21:14;101719.44;;;14.11;100.00
74163;BME280;62515;52.758;5.076;2022-10-30T01:23:52;101717.94;;;14.07;100.00
74163;BME280;62515;52.758;5.076;2022-10-30T01:26:29;101714.50;;;14.05;100.00
74163;BME280;62515;52.758;5.076;2022-10-30T01:29:12;101713.03;;;14.01;100.00
74163;BME280;62515;52.758;5.076;2022-10-30T01:31:55;101729.41;;;13.96;100.00
74163;BME280;62515;52.758;5.076;2022-10-30T01:34:30;101727.47;;;13.98;100.00
74163;BME280;62515;52.758;5.076;2022-10-30T01:37:05;101730.16;;;13.98;100.00
74163;BME280;62515;52.758;5.076;2022-10-30T01:39:35;101726.75;;;13.96;100.00
74163;BME280;62515;52.758;5.076;2022-10-30T01:45:45;101737.22;;;13.99;100.00
74163;BME280;62515;52.758;5.076;2022-10-30T01:48:29;101733.06;;;13.95;100.00
74163;BME280;62515;52.758;5.076;2022-10-30T01:51:10;101716.94;;;13.84;100.00
74163;BME280;62515;52.758;5.076;2022-10-30T01:53:45;101714.75;;;13.89;100.00
74163;BME280;62515;52.758;5.076;2022-10-30T01:56:24;101714.53;;;13.92;100.00
74163;BME280;62515;52.758;5.076;2022-10-30T01:59:02;101726.53;;;13.99;100.00
74163;BME280;62515;52.758;5.076;2022-10-30T02:01:36;101714.13;;;13.86;100.00
74163;BME280;62515;52.758;5.076;2022-10-30T02:04:03;101725.38;;;13.91;100.00
74163;BME280;62515;52.758;5.076;2022-10-30T02:06:33;101725.47;;;13.89;100.00
74163;BME280;62515;52.758;5.076;2022-10-30T02:09:01;101726.53;;;13.87;100.00
74163;BME280;62515;52.758;5.076;2022-10-30T02:11:28;101727.06;;;13.92;100.00
74163;BME280;62515;52.758;5.076;2022-10-30T02:14:00;101730.59;;;13.92;100.00
74163;BME280;62515;52.758;5.076;2022-10-30T02:16:29;101734.44;;;13.88;100.00
74163;BME280;62515;52.758;5.076;2022-10-30T02:18:57;101742.47;;;13.88;100.00
74163;BME280;62515;52.758;5.076;2022-10-30T02:21:26;101746.34;;;13.84;100.00
74163;BME280;62515;52.758;5.076;2022-10-30T02:23:53;101750.94;;;13.82;100.00
74163;BME280;62515;52.758;5.076;2022-10-30T02:26:20;101733.09;;;13.70;100.00
74163;BME280;62515;52.758;5.076;2022-10-30T02:28:46;101751.50;;;13.75;100.00
74163;BME280;62515;52.758;5.076;2022-10-30T02:31:13;101749.88;;;13.72;100.00
74163;BME280;62515;52.758;5.076;2022-10-30T02:33:43;101744.97;;;13.66;100.00
74163;BME280;62515;52.758;5.076;2022-10-30T02:36:11;101735.34;;;13.51;100.00
74163;BME280;62515;52.758;5.076;2022-10-30T02:38:43;101749.16;;;13.57;100.00
74163;BME280;62515;52.758;5.076;2022-10-30T02:41:10;101759.09;;;13.55;100.00
74163;BME280;62515;52.758;5.076;2022-10-30T02:43:38;101755.00;;;13.50;100.00
74163;BME280;62515;52.758;5.076;2022-10-30T02:46:04;101756.31;;;13.44;100.00
74163;BME280;62515;52.758;5.076;2022-10-30T02:48:32;101756.31;;;13.44;100.00
74163;BME280;62515;52.758;5.076;2022-10-30T02:51:00;101747.53;;;13.42;100.00
74163;BME280;62515;52.758;5.076;2022-10-30T02:53:28;101743.44;;;13.37;100.00
74163;BME280;62515;52.758;5.076;2022-10-30T02:56:02;101747.31;;;13.33;100.00
74163;BME280;62515;52.758;5.076;2022-10-30T02:58:29;101760.47;;;13.36;100.00
74163;BME280;62515;52.758;5.076;2022-10-30T03:00:56;101755.44;;;13.31;100.00
74163;BME280;62515;52.758;5.076;2022-10-30T03:03:23;101751.25;;;13.27;100.00
74163;BME280;62515;52.758;5.076;2022-10-30T03:05:49;101757.66;;;13.25;100.00
74163;BME280;62515;52.758;5.076;2022-10-30T03:08:16;101754.25;;;13.23;100.00
74163;BME280;62515;52.758;5.076;2022-10-30T03:10:45;101754.47;;;13.20;100.00
74163;BME280;62515;52.758;5.076;2022-10-30T03:13:13;101764.09;;;13.22;100.00
74163;BME280;62515;52.758;5.076;2022-10-30T03:15:40;101753.69;;;13.18;100.00
74163;BME280;62515;52.758;5.076;2022-10-30T03:18:06;101768.88;;;13.17;100.00
74163;BME280;62515;52.758;5.076;2022-10-30T03:20:39;101760.97;;;13.16;100.00
74163;BME280;62515;52.758;5.076;2022-10-30T03:23:06;101772.53;;;13.16;100.00
74163;BME280;62515;52.758;5.076;2022-10-30T03:25:33;101758.78;;;13.08;100.00
74163;BME280;62515;52.758;5.076;2022-10-30T03:28:00;101755.38;;;13.06;100.00
74163;BME280;62515;52.758;5.076;2022-10-30T03:30:29;101762.53;;;13.05;100.00
74163;BME280;62515;52.758;5.076;2022-10-30T03:32:59;101774.75;;;13.09;100.00
74163;BME280;62515;52.758;5.076;2022-10-30T03:35:27;101769.59;;;13.06;100.00
74163;BME280;62515;52.758;5.076;2022-10-30T03:37:53;101760.78;;;13.04;100.00
74163;BME280;62515;52.758;5.076;2022-10-30T03:40:20;101763.47;;;13.04;100.00
74163;BME280;62515;52.758;5.076;2022-10-30T03:42:48;101758.78;;;13.08;100.00
74163;BME280;62515;52.758;5.076;2022-10-30T03:45:16;101740.19;;;13.06;100.00
74163;BME280;62515;52.758;5.076;2022-10-30T03:47:44;101752.00;;;13.17;100.00
74163;BME280;62515;52.758;5.076;2022-10-30T03:50:11;101742.25;;;13.16;100.00
74163;BME280;62515;52.758;5.076;2022-10-30T03:52:38;101747.50;;;13.17;100.00
74163;BME280;62515;52.758;5.076;2022-10-30T03:55:06;101736.78;;;13.17;100.00
74163;BME280;62515;52.758;5.076;2022-10-30T03:57:35;101748.34;;;13.18;100.00
74163;BME280;62515;52.758;5.076;2022-10-30T04:00:14;101747.69;;;13.14;100.00
74163;BME280;62515;52.758;5.076;2022-10-30T04:02:53;101746.75;;;13.15;100.00
74163;BME280;62515;52.758;5.076;2022-10-30T04:05:23;101745.34;;;13.09;100.00
74163;BME280;62515;52.758;5.076;2022-10-30T04:07:54;101740.59;;;13.00;100.00
74163;BME280;62515;52.758;5.076;2022-10-30T04:10:23;101739.50;;;12.90;100.00
74163;BME280;62515;52.758;5.076;2022-10-30T04:12:51;101739.56;;;12.76;100.00
74163;BME280;62515;52.758;5.076;2022-10-30T04:15:21;101750.28;;;12.62;100.00
74163;BME280;62515;52.758;5.076;2022-10-30T04:17:49;101755.16;;;12.55;100.00
74163;BME280;62515;52.758;5.076;2022-10-30T04:20:19;101755.56;;;12.49;100.00
74163;BME280;62515;52.758;5.076;2022-10-30T04:22:46;101745.41;;;12.42;100.00
74163;BME280;62515;52.758;5.076;2022-10-30T04:25:18;101753.03;;;12.48;100.00
74163;BME280;62515;52.758;5.076;2022-10-30T04:27:47;101746.16;;;12.44;100.00
74163;BME280;62515;52.758;5.076;2022-10-30T04:30:16;101755.16;;;12.55;100.00
74163;BME280;62515;52.758;5.076;2022-10-30T04:32:46;101755.53;;;12.64;100.00
74163;BME280;62515;52.758;5.076;2022-10-30T04:35:13;101749.25;;;12.65;100.00
74163;BME280;62515;52.758;5.076;2022-10-30T04:37:42;101749.13;;;12.66;100.00
74163;BME280;62515;52.758;5.076;2022-10-30T04:40:09;101757.00;;;12.82;100.00
74163;BME280;62515;52.758;5.076;2022-10-30T04:42:49;101757.97;;;12.81;100.00
74163;BME280;62515;52.758;5.076;2022-10-30T04:45:16;101734.72;;;12.69;100.00
74163;BME280;62515;52.758;5.076;2022-10-30T04:47:43;101748.72;;;12.72;100.00
74163;BME280;62515;52.758;5.076;2022-10-30T04:50:10;101745.84;;;12.75;100.00
74163;BME280;62515;52.758;5.076;2022-10-30T04:52:37;101749.97;;;12.81;100.00
74163;BME280;62515;52.758;5.076;2022-10-30T04:55:08;101742.88;;;12.80;100.00
74163;BME280;62515;52.758;5.076;2022-10-30T04:57:36;101745.34;;;12.83;100.00
74163;BME280;62515;52.758;5.076;2022-10-30T05:00:04;101738.72;;;12.88;100.00
74163;BME280;62515;52.758;5.076;2022-10-30T05:02:33;101744.81;;;12.78;100.00
74163;BME280;62515;52.758;5.076;2022-10-30T05:05:00;101734.47;;;12.59;100.00
74163;BME280;62515;52.758;5.076;2022-10-30T05:07:27;101730.34;;;12.41;100.00
74163;BME280;62515;52.758;5.076;2022-10-30T05:09:56;101739.31;;;12.26;100.00
74163;BME280;62515;52.758;5.076;2022-10-30T05:12:25;101737.25;;;12.17;100.00
74163;BME280;62515;52.758;5.076;2022-10-30T05:14:54;101724.97;;;12.00;100.00
74163;BME280;62515;52.758;5.076;2022-10-30T05:17:21;101753.19;;;12.04;100.00
74163;BME280;62515;52.758;5.076;2022-10-30T05:19:51;101737.56;;;11.98;100.00
74163;BME280;62515;52.758;5.076;2022-10-30T05:22:18;101737.50;;;11.99;100.00
74163;BME280;62515;52.758;5.076;2022-10-30T05:24:45;101736.72;;;11.97;100.00
74163;BME280;62515;52.758;5.076;2022-10-30T05:27:12;101729.00;;;11.93;100.00
74163;BME280;62515;52.758;5.076;2022-10-30T05:29:40;101735.56;;;11.87;100.00
74163;BME280;62515;52.758;5.076;2022-10-30T05:32:08;101740.16;;;11.85;100.00
74163;BME280;62515;52.758;5.076;2022-10-30T05:34:41;101746.03;;;11.90;100.00
74163;BME280;62515;52.758;5.076;2022-10-30T05:37:09;101750.25;;;11.80;100.00
74163;BME280;62515;52.758;5.076;2022-10-30T05:39:36;101743.69;;;11.72;100.00
74163;BME280;62515;52.758;5.076;2022-10-30T05:42:09;101742.81;;;11.71;100.00
74163;BME280;62515;52.758;5.076;2022-10-30T05:44:43;101702.13;;;11.53;100.00
74163;BME280;62515;52.758;5.076;2022-10-30T05:47:28;101748.75;;;11.76;100.00
74163;BME280;62515;52.758;5.076;2022-10-30T05:49:56;101739.56;;;11.80;100.00
74163;BME280;62515;52.758;5.076;2022-10-30T05:52:25;101745.50;;;11.85;100.00
74163;BME280;62515;52.758;5.076;2022-10-30T05:54:51;101749.50;;;11.92;100.00
74163;BME280;62515;52.758;5.076;2022-10-30T05:57:38;101747.78;;;11.91;100.00
74163;BME280;62515;52.758;5.076;2022-10-30T06:00:09;101750.06;;;11.83;100.00
74163;BME280;62515;52.758;5.076;2022-10-30T06:02:40;101751.31;;;11.92;100.00
74163;BME280;62515;52.758;5.076;2022-10-30T06:05:08;101749.69;;;11.89;100.00
74163;BME280;62515;52.758;5.076;2022-10-30T06:07:34;101755.09;;;11.88;100.00
74163;BME280;62515;52.758;5.076;2022-10-30T06:10:01;101753.78;;;11.95;100.00
74163;BME280;62515;52.758;5.076;2022-10-30T06:12:39;101754.25;;;12.01;100.00
74163;BME280;62515;52.758;5.076;2022-10-30T06:15:17;101751.94;;;12.10;100.00
74163;BME280;62515;52.758;5.076;2022-10-30T06:17:44;101746.44;;;12.13;100.00
74163;BME280;62515;52.758;5.076;2022-10-30T06:20:23;101752.91;;;12.09;100.00
74163;BME280;62515;52.758;5.076;2022-10-30T06:23:18;101752.91;;;11.94;100.00
74163;BME280;62515;52.758;5.076;2022-10-30T06:26:08;101762.13;;;12.03;100.00
74163;BME280;62515;52.758;5.076;2022-10-30T06:28:49;101759.19;;;11.93;100.00
74163;BME280;62515;52.758;5.076;2022-10-30T06:31:17;101769.06;;;12.20;100.00
74163;BME280;62515;52.758;5.076;2022-10-30T06:33:44;101765.06;;;12.27;100.00
74163;BME280;62515;52.758;5.076;2022-10-30T06:36:12;101770.22;;;12.30;100.00
74163;BME280;62515;52.758;5.076;2022-10-30T06:38:40;101755.25;;;12.27;100.00
74163;BME280;62515;52.758;5.076;2022-10-30T06:41:07;101758.78;;;12.28;100.00
74163;BME280;62515;52.758;5.076;2022-10-30T06:43:52;101753.25;;;12.17;100.00
74163;BME280;62515;52.758;5.076;2022-10-30T06:46:24;101768.41;;;12.16;100.00
74163;BME280;62515;52.758;5.076;2022-10-30T06:48:58;101766.31;;;12.21;100.00
74163;BME280;62515;52.758;5.076;2022-10-30T06:51:25;101759.47;;;12.17;100.00
74163;BME280;62515;52.758;5.076;2022-10-30T06:53:53;101762.97;;;12.32;100.00
74163;BME280;62515;52.758;5.076;2022-10-30T06:56:38;101753.91;;;12.34;100.00
74163;BME280;62515;52.758;5.076;2022-10-30T06:59:31;101778.94;;;12.46;100.00
74163;BME280;62515;52.758;5.076;2022-10-30T07:02:19;101774.72;;;12.56;100.00
74163;BME280;62515;52.758;5.076;2022-10-30T07:04:50;101779.38;;;12.67;100.00
74163;BME280;62515;52.758;5.076;2022-10-30T07:07:18;101763.44;;;12.65;100.00
74163;BME280;62515;52.758;5.076;2022-10-30T07:09:45;101759.41;;;12.72;100.00
74163;BME280;62515;52.758;5.076;2022-10-30T07:12:18;101777.50;;;12.81;100.00
74163;BME280;62515;52.758;5.076;2022-10-30T07:15:09;101778.94;;;12.87;100.00
74163;BME280;62515;52.758;5.076;2022-10-30T07:17:58;101780.16;;;13.08;100.00
74163;BME280;62515;52.758;5.076;2022-10-30T07:20:30;101770.06;;;13.13;100.00
74163;BME280;62515;52.758;5.076;2022-10-30T07:22:58;101773.38;;;13.17;100.00
74163;BME280;62515;52.758;5.076;2022-10-30T07:25:25;101783.44;;;13.26;100.00
74163;BME280;62515;52.758;5.076;2022-10-30T07:28:05;101754.84;;;13.14;100.00
74163;BME280;62515;52.758;5.076;2022-10-30T07:30:41;101788.81;;;13.38;100.00
74163;BME280;62515;52.758;5.076;2022-10-30T07:33:19;101767.41;;;13.26;100.00
74163;BME280;62515;52.758;5.076;2022-10-30T07:36:05;101723.72;;;13.00;100.00
74163;BME280;62515;52.758;5.076;2022-10-30T07:38:44;101793.22;;;13.52;100.00
74163;BME280;62515;52.758;5.076;2022-10-30T07:41:23;101728.78;;;13.17;100.00
74163;BME280;62515;52.758;5.076;2022-10-30T07:43:59;101760.38;;;13.50;100.00
74163;BME280;62515;52.758;5.076;2022-10-30T07:46:44;101796.13;;;13.74;100.00
74163;BME280;62515;52.758;5.076;2022-10-30T07:49:24;101760.16;;;13.66;100.00
74163;BME280;62515;52.758;5.076;2022-10-30T07:51:56;101774.72;;;13.87;100.00
74163;BME280;62515;52.758;5.076;2022-10-30T07:54:23;101801.34;;;14.13;100.00
74163;BME280;62515;52.758;5.076;2022-10-30T07:56:51;101788.06;;;14.12;100.00
74163;BME280;62515;52.758;5.076;2022-10-30T07:59:38;101800.03;;;14.19;100.00
74163;BME280;62515;52.758;5.076;2022-10-30T08:02:39;101786.38;;;14.11;100.00
74163;BME280;62515;52.758;5.076;2022-10-30T08:05:25;101786.03;;;14.15;100.00
74163;BME280;62515;52.758;5.076;2022-10-30T08:08:13;101798.97;;;14.22;100.00
74163;BME280;62515;52.758;5.076;2022-10-30T08:10:40;101768.81;;;14.07;100.00
74163;BME280;62515;52.758;5.076;2022-10-30T08:13:07;101805.09;;;14.36;100.00
74163;BME280;62515;52.758;5.076;2022-10-30T08:15:34;101798.19;;;14.32;100.00
74163;BME280;62515;52.758;5.076;2022-10-30T08:18:01;101814.91;;;14.48;100.00
74163;BME280;62515;52.758;5.076;2022-10-30T08:20:29;101811.13;;;14.51;100.00
74163;BME280;62515;52.758;5.076;2022-10-30T08:22:57;101793.16;;;14.53;100.00
74163;BME280;62515;52.758;5.076;2022-10-30T08:25:26;101804.47;;;14.69;100.00
74163;BME280;62515;52.758;5.076;2022-10-30T08:27:55;101795.09;;;14.75;100.00
74163;BME280;62515;52.758;5.076;2022-10-30T08:30:26;101800.88;;;14.81;100.00
74163;BME280;62515;52.758;5.076;2022-10-30T08:32:56;101803.81;;;14.89;100.00
74163;BME280;62515;52.758;5.076;2022-10-30T08:35:52;101800.56;;;14.97;100.00
74163;BME280;62515;52.758;5.076;2022-10-30T08:38:20;101784.09;;;14.90;100.00
74163;BME280;62515;52.758;5.076;2022-10-30T08:40:57;101789.56;;;15.12;100.00
74163;BME280;62515;52.758;5.076;2022-10-30T08:43:24;101789.47;;;15.25;100.00
74163;BME280;62515;52.758;5.076;2022-10-30T08:45:52;101793.41;;;15.32;100.00
74163;BME280;62515;52.758;5.076;2022-10-30T08:48:20;101780.28;;;15.40;100.00
74163;BME280;62515;52.758;5.076;2022-10-30T08:50:50;101808.53;;;15.68;100.00
74163;BME280;62515;52.758;5.076;2022-10-30T08:53:25;101800.28;;;15.82;100.00
74163;BME280;62515;52.758;5.076;2022-10-30T08:55:54;101806.25;;;16.08;100.00
74163;BME280;62515;52.758;5.076;2022-10-30T08:58:51;101826.28;;;16.26;99.10
74163;BME280;62515;52.758;5.076;2022-10-30T09:01:24;101764.38;;;16.16;98.98
74163;BME280;62515;52.758;5.076;2022-10-30T09:04:13;101818.38;;;16.58;97.91
74163;BME280;62515;52.758;5.076;2022-10-30T09:07:00;101804.28;;;16.54;97.38
74163;BME280;62515;52.758;5.076;2022-10-30T09:09:39;101808.59;;;16.57;96.95
74163;BME280;62515;52.758;5.076;2022-10-30T09:12:06;101791.81;;;16.53;97.34
74163;BME280;62515;52.758;5.076;2022-10-30T09:14:40;101789.97;;;16.65;96.46
74163;BME280;62515;52.758;5.076;2022-10-30T09:17:10;101791.94;;;16.74;96.22
74163;BME280;62515;52.758;5.076;2022-10-30T09:19:39;101787.72;;;16.92;96.54
74163;BME280;62515;52.758;5.076;2022-10-30T09:22:10;101786.56;;;17.06;95.32
74163;BME280;62515;52.758;5.076;2022-10-30T09:24:39;101769.81;;;17.13;93.97
74163;BME280;62515;52.758;5.076;2022-10-30T09:27:26;101784.28;;;17.43;92.54
74163;BME280;62515;52.758;5.076;2022-10-30T09:29:56;101803.13;;;18.05;91.45
74163;BME280;62515;52.758;5.076;2022-10-30T09:32:29;101784.25;;;18.75;87.10
74163;BME280;62515;52.758;5.076;2022-10-30T09:35:04;101802.41;;;19.78;83.26
74163;BME280;62515;52.758;5.076;2022-10-30T09:37:38;101796.75;;;20.73;78.51
74163;BME280;62515;52.758;5.076;2022-10-30T09:40:12;101789.91;;;21.31;77.30
74163;BME280;62515;52.758;5.076;2022-10-30T09:42:46;101813.09;;;22.21;73.94
74163;BME280;62515;52.758;5.076;2022-10-30T09:45:33;101805.28;;;22.52;69.97
74163;BME280;62515;52.758;5.076;2022-10-30T09:48:48;101794.44;;;23.18;68.88
74163;BME280;62515;52.758;5.076;2022-10-30T09:51:48;101799.81;;;22.85;70.76
74163;BME280;62515;52.758;5.076;2022-10-30T09:54:27;101793.97;;;23.47;67.21
74163;BME280;62515;52.758;5.076;2022-10-30T09:57:04;101798.81;;;23.83;65.77
74163;BME280;62515;52.758;5.076;2022-10-30T09:59:44;101802.00;;;24.03;65.57
74163;BME280;62515;52.758;5.076;2022-10-30T10:02:26;101800.56;;;24.39;64.37
74163;BME280;62515;52.758;5.076;2022-10-30T10:04:59;101795.09;;;24.86;62.46
74163;BME280;62515;52.758;5.076;2022-10-30T10:07:47;101805.28;;;25.61;62.86
74163;BME280;62515;52.758;5.076;2022-10-30T10:10:37;101795.19;;;26.13;60.41
74163;BME280;62515;52.758;5.076;2022-10-30T10:13:25;101801.59;;;26.35;56.48
74163;BME280;62515;52.758;5.076;2022-10-30T10:15:54;101793.31;;;26.28;56.84
74163;BME280;62515;52.758;5.076;2022-10-30T10:18:27;101786.28;;;26.19;56.89
74163;BME280;62515;52.758;5.076;2022-10-30T10:20:59;101792.28;;;26.94;53.63
74163;BME280;62515;52.758;5.076;2022-10-30T10:23:32;101780.06;;;26.76;54.34
74163;BME280;62515;52.758;5.076;2022-10-30T10:26:15;101771.13;;;25.50;56.62
74163;BME280;62515;52.758;5.076;2022-10-30T10:28:55;101779.88;;;25.37;58.12
74163;BME280;62515;52.758;5.076;2022-10-30T10:31:38;101806.19;;;24.77;61.46
74163;BME280;62515;52.758;5.076;2022-10-30T10:34:34;101759.22;;;24.75;59.35
74163;BME280;62515;52.758;5.076;2022-10-30T10:37:38;101787.69;;;25.63;59.16
74163;BME280;62515;52.758;5.076;2022-10-30T10:40:35;101796.72;;;26.30;56.75
74163;BME280;62515;52.758;5.076;2022-10-30T10:43:15;101806.72;;;26.74;56.86
74163;BME280;62515;52.758;5.076;2022-10-30T10:45:53;101802.50;;;27.07;54.53
74163;BME280;62515;52.758;5.076;2022-10-30T10:48:34;101809.28;;;26.61;58.65
74163;BME280;62515;52.758;5.076;2022-10-30T10:51:08;101801.59;;;26.35;54.76
74163;BME280;62515;52.758;5.076;2022-10-30T10:53:42;101812.16;;;26.74;57.25
74163;BME280;62515;52.758;5.076;2022-10-30T10:56:12;101793.09;;;26.59;58.37
74163;BME280;62515;52.758;5.076;2022-10-30T10:58:45;101814.78;;;26.31;58.63
74163;BME280;62515;52.758;5.076;2022-10-30T11:01:17;101798.69;;;25.70;58.25
74163;BME280;62515;52.758;5.076;2022-10-30T11:03:53;101803.78;;;25.13;59.10
74163;BME280;62515;52.758;5.076;2022-10-30T11:06:23;101810.50;;;24.24;62.30
74163;BME280;62515;52.758;5.076;2022-10-30T11:08:55;101806.84;;;23.53;65.34
74163;BME280;62515;52.758;5.076;2022-10-30T11:11:27;101802.06;;;23.22;68.26
74163;BME280;62515;52.758;5.076;2022-10-30T11:13:55;101801.69;;;22.93;66.19
74163;BME280;62515;52.758;5.076;2022-10-30T11:16:27;101793.34;;;22.36;68.61
74163;BME280;62515;52.758;5.076;2022-10-30T11:18:58;101799.78;;;22.43;68.64
74163;BME280;62515;52.758;5.076;2022-10-30T11:21:29;101800.63;;;22.02;71.79
74163;BME280;62515;52.758;5.076;2022-10-30T11:23:57;101806.31;;;21.91;72.60
74163;BME280;62515;52.758;5.076;2022-10-30T11:26:30;101799.75;;;21.76;71.96
74163;BME280;62515;52.758;5.076;2022-10-30T11:29:02;101795.34;;;21.31;73.83
74163;BME280;62515;52.758;5.076;2022-10-30T11:31:31;101794.38;;;21.05;75.98
74163;BME280;62515;52.758;5.076;2022-10-30T11:34:28;101787.75;;;21.00;75.66
74163;BME280;62515;52.758;5.076;2022-10-30T11:36:56;101788.50;;;20.92;77.51
74163;BME280;62515;52.758;5.076;2022-10-30T11:39:24;101780.91;;;20.78;76.55
74163;BME280;62515;52.758;5.076;2022-10-30T11:42:01;101773.81;;;20.77;77.42
74163;BME280;62515;52.758;5.076;2022-10-30T11:44:33;101782.72;;;20.87;76.72
74163;BME280;62515;52.758;5.076;2022-10-30T11:47:01;101757.34;;;20.70;78.26
74163;BME280;62515;52.758;5.076;2022-10-30T11:49:38;101767.06;;;20.63;78.63
74163;BME280;62515;52.758;5.076;2022-10-30T11:52:06;101773.03;;;20.67;78.08
74163;BME280;62515;52.758;5.076;2022-10-30T11:54:36;101766.88;;;20.47;79.02
74163;BME280;62515;52.758;5.076;2022-10-30T11:57:17;101771.34;;;20.39;79.57
74163;BME280;62515;52.758;5.076;2022-10-30T11:59:46;101764.13;;;20.29;79.99
74163;BME280;62515;52.758;5.076;2022-10-30T12:02:20;101757.09;;;20.00;79.80
74163;BME280;62515;52.758;5.076;2022-10-30T12:04:49;101767.09;;;19.99;80.70
74163;BME280;62515;52.758;5.076;2022-10-30T12:07:21;101764.84;;;19.85;80.87
74163;BME280;62515;52.758;5.076;2022-10-30T12:09:51;101754.66;;;19.79;82.56
74163;BME280;62515;52.758;5.076;2022-10-30T12:12:21;101763.16;;;19.84;80.64
74163;BME280;62515;52.758;5.076;2022-10-30T12:14:51;101763.44;;;19.81;81.21
74163;BME280;62515;52.758;5.076;2022-10-30T12:17:18;101759.50;;;19.75;80.51
74163;BME280;62515;52.758;5.076;2022-10-30T12:19:48;101756.09;;;19.64;81.10
74163;BME280;62515;52.758;5.076;2022-10-30T12:22:28;101757.81;;;19.55;82.44
74163;BME280;62515;52.758;5.076;2022-10-30T12:24:57;101761.09;;;19.59;82.09
74163;BME280;62515;52.758;5.076;2022-10-30T12:27:26;101746.91;;;19.57;81.89
74163;BME280;62515;52.758;5.076;2022-10-30T12:30:03;101752.13;;;19.58;81.62
74163;BME280;62515;52.758;5.076;2022-10-30T12:32:40;101748.72;;;19.66;82.29
74163;BME280;62515;52.758;5.076;2022-10-30T12:35:23;101751.84;;;19.61;82.93
74163;BME280;62515;52.758;5.076;2022-10-30T12:37:56;101750.69;;;19.64;83.53
74163;BME280;62515;52.758;5.076;2022-10-30T12:40:29;101738.34;;;19.61;83.75
74163;BME280;62515;52.758;5.076;2022-10-30T12:43:01;101750.47;;;19.57;83.13
74163;BME280;62515;52.758;5.076;2022-10-30T12:45:36;101747.59;;;19.40;83.51
74163;BME280;62515;52.758;5.076;2022-10-30T12:48:07;101754.16;;;19.27;83.96
74163;BME280;62515;52.758;5.076;2022-10-30T12:50:42;101747.06;;;19.26;83.96
74163;BME280;62515;52.758;5.076;2022-10-30T12:53:21;101741.38;;;19.29;85.13
74163;BME280;62515;52.758;5.076;2022-10-30T12:55:55;101746.78;;;19.20;84.63
74163;BME280;62515;52.758;5.076;2022-10-30T12:58:30;101747.34;;;19.14;84.57
74163;BME280;62515;52.758;5.076;2022-10-30T13:01:05;101742.09;;;19.12;84.75
74163;BME280;62515;52.758;5.076;2022-10-30T13:03:40;101746.22;;;19.07;84.83
74163;BME280;62515;52.758;5.076;2022-10-30T13:06:12;101747.47;;;19.03;85.37
74163;BME280;62515;52.758;5.076;2022-10-30T13:08:47;101748.34;;;19.03;84.81
74163;BME280;62515;52.758;5.076;2022-10-30T13:11:22;101720.78;;;19.00;85.89
74163;BME280;62515;52.758;5.076;2022-10-30T13:13:53;101732.72;;;19.07;86.25
74163;BME280;62515;52.758;5.076;2022-10-30T13:16:25;101729.75;;;19.00;87.02